createdAt,value
2023-03-21T00:00:21.036Z,3.40
2023-03-21T00:03:09.245Z,3.90
2023-03-21T00:05:55.269Z,3.47
2023-03-21T00:08:40.312Z,3.70
2023-03-21T00:11:18.983Z,4.00
2023-03-21T00:13:55.499Z,3.53
2023-03-21T00:16:41.569Z,3.93
2023-03-21T00:19:39.777Z,3.70
2023-03-21T00:22:15.732Z,3.70
2023-03-21T00:24:58.407Z,3.77
2023-03-21T00:28:07.205Z,3.57
2023-03-21T00:30:54.959Z,4.00
2023-03-21T00:33:40.495Z,4.20
2023-03-21T00:36:33.142Z,4.10
2023-03-21T00:39:06.487Z,3.93
2023-03-21T00:41:42.888Z,3.70
2023-03-21T00:44:25.739Z,3.60
2023-03-21T00:47:08.243Z,3.83
2023-03-21T00:49:54.004Z,3.63
2023-03-21T00:52:47.178Z,3.73
2023-03-21T00:55:35.292Z,3.27
2023-03-21T00:58:17.275Z,3.57
2023-03-21T01:00:51.149Z,3.47
2023-03-21T01:03:42.591Z,3.53
2023-03-21T01:06:29.960Z,3.63
2023-03-21T01:09:33.765Z,2.97
2023-03-21T01:12:26.255Z,3.87
2023-03-21T01:15:17.963Z,3.20
2023-03-21T01:18:02.803Z,3.43
2023-03-21T01:20:44.643Z,3.40
2023-03-21T01:23:40.681Z,3.23
2023-03-21T01:26:24.488Z,2.97
2023-03-21T01:29:03.821Z,3.30
2023-03-21T01:31:47.456Z,3.20
2023-03-21T01:34:19.081Z,3.40
2023-03-21T01:36:54.730Z,3.07
2023-03-21T01:39:39.317Z,4.10
2023-03-21T01:43:13.071Z,3.10
2023-03-21T01:46:51.555Z,3.03
2023-03-21T01:50:13.977Z,2.80
2023-03-21T01:53:04.802Z,2.53
2023-03-21T01:55:49.284Z,2.70
2023-03-21T01:58:52.141Z,2.93
2023-03-21T02:02:40.267Z,2.47
2023-03-21T02:05:26.045Z,2.80
2023-03-21T02:08:12.138Z,2.70
2023-03-21T02:11:09.194Z,2.57
2023-03-21T02:13:46.835Z,2.83
2023-03-21T02:16:44.339Z,3.30
2023-03-21T02:20:18.392Z,2.80
2023-03-21T02:23:41.458Z,2.57
2023-03-21T02:27:03.667Z,2.97
2023-03-21T02:30:51.310Z,2.70
2023-03-21T02:34:18.022Z,3.17
2023-03-21T02:37:23.428Z,3.37
2023-03-21T02:40:17.723Z,3.00
2023-03-21T02:43:23.412Z,2.90
2023-03-21T02:46:08.480Z,2.63
2023-03-21T02:49:06.587Z,2.70
2023-03-21T02:51:50.186Z,2.70
2023-03-21T02:54:53.644Z,3.03
2023-03-21T02:57:45.313Z,3.00
2023-03-21T03:00:23.306Z,2.90
2023-03-21T03:03:08.326Z,2.47
2023-03-21T03:06:08.525Z,2.70
2023-03-21T03:09:50.796Z,2.83
2023-03-21T03:12:54.380Z,3.10
2023-03-21T03:15:41.153Z,2.67
2023-03-21T03:18:43.613Z,3.23
2023-03-21T03:21:36.037Z,3.30
2023-03-21T03:24:14.696Z,3.10
2023-03-21T03:26:57.840Z,3.27
2023-03-21T03:29:44.682Z,3.63
2023-03-21T03:32:32.047Z,3.00
2023-03-21T03:35:39.121Z,2.97
2023-03-21T03:38:35.623Z,3.20
2023-03-21T03:41:25.795Z,2.90
2023-03-21T03:44:18.184Z,3.27
2023-03-21T03:47:08.647Z,3.13
2023-03-21T03:49:53.255Z,2.93
2023-03-21T03:52:31.272Z,3.30
2023-03-21T03:55:33.281Z,3.17
2023-03-21T03:58:27.462Z,3.20
2023-03-21T04:01:13.401Z,3.20
2023-03-21T04:04:12.706Z,3.00
2023-03-21T04:07:08.192Z,3.30
2023-03-21T04:09:54.097Z,3.00
2023-03-21T04:12:33.760Z,3.30
2023-03-21T04:15:37.362Z,2.93
2023-03-21T04:18:30.673Z,3.43
2023-03-21T04:21:04.824Z,3.00
2023-03-21T04:23:51.647Z,3.83
2023-03-21T04:26:33.916Z,3.60
2023-03-21T04:29:24.453Z,3.60
2023-03-21T04:32:08.177Z,3.87
2023-03-21T04:34:54.346Z,3.57
2023-03-21T04:37:47.151Z,3.60
2023-03-21T04:40:23.187Z,3.80
2023-03-21T04:43:03.533Z,3.50
2023-03-21T04:45:41.735Z,3.27
2023-03-21T04:48:25.140Z,3.90
2023-03-21T04:51:11.755Z,3.90
2023-03-21T04:53:49.620Z,3.80
2023-03-21T04:56:31.608Z,3.77
2023-03-21T04:59:14.591Z,3.83
2023-03-21T05:01:57.273Z,3.67
2023-03-21T05:04:48.556Z,3.70
2023-03-21T05:07:37.380Z,3.43
2023-03-21T05:10:24.195Z,3.40
2023-03-21T05:13:03.974Z,3.47
2023-03-21T05:16:03.501Z,3.20
2023-03-21T05:18:35.533Z,3.23
2023-03-21T05:21:15.031Z,3.43
2023-03-21T05:24:00.762Z,3.43
2023-03-21T05:26:57.098Z,3.30
2023-03-21T05:29:49.932Z,3.17
2023-03-21T05:32:33.801Z,3.17
2023-03-21T05:35:33.047Z,3.67
2023-03-21T05:38:17.436Z,3.80
2023-03-21T05:40:57.651Z,3.83
2023-03-21T05:44:08.374Z,3.60
2023-03-21T05:46:51.334Z,3.60
2023-03-21T05:49:45.135Z,3.90
2023-03-21T05:52:16.289Z,3.83
2023-03-21T05:54:52.204Z,4.00
2023-03-21T05:57:32.289Z,4.07
2023-03-21T06:00:22.343Z,3.80
2023-03-21T06:03:08.268Z,3.13
2023-03-21T06:06:04.110Z,3.90
2023-03-21T06:09:06.010Z,4.00
2023-03-21T06:11:42.597Z,4.13
2023-03-21T06:14:29.318Z,3.90
2023-03-21T06:17:43.336Z,3.63
2023-03-21T06:20:27.058Z,4.30
2023-03-21T06:23:21.818Z,3.73
2023-03-21T06:26:15.701Z,4.17
2023-03-21T06:29:04.359Z,4.13
2023-03-21T06:31:56.297Z,3.57
2023-03-21T06:34:32.647Z,3.83
2023-03-21T06:37:04.435Z,4.03
2023-03-21T06:39:50.316Z,4.07
2023-03-21T06:42:30.741Z,4.03
2023-03-21T06:45:09.960Z,4.10
2023-03-21T06:47:43.972Z,3.97
2023-03-21T06:50:51.147Z,3.90
2023-03-21T06:53:53.677Z,4.30
2023-03-21T06:56:57.208Z,4.30
2023-03-21T06:59:41.924Z,3.70
2023-03-21T07:02:25.584Z,4.23
2023-03-21T07:05:20.544Z,4.63
2023-03-21T07:08:12.962Z,4.27
2023-03-21T07:10:51.819Z,3.67
2023-03-21T07:13:50.197Z,3.93
2023-03-21T07:16:31.399Z,3.90
2023-03-21T07:19:19.527Z,3.87
2023-03-21T07:22:07.898Z,3.60
2023-03-21T07:24:55.961Z,4.00
2023-03-21T07:27:36.115Z,3.40
2023-03-21T07:30:40.464Z,3.63
2023-03-21T07:33:32.078Z,3.57
2023-03-21T07:36:22.716Z,4.30
2023-03-21T07:39:15.441Z,3.57
2023-03-21T07:42:20.768Z,3.83
2023-03-21T07:45:14.190Z,3.27
2023-03-21T07:47:44.932Z,3.47
2023-03-21T07:50:30.168Z,3.23
2023-03-21T07:53:07.194Z,3.30
2023-03-21T07:55:39.418Z,3.37
2023-03-21T07:58:27.269Z,3.67
2023-03-21T08:01:21.786Z,3.53
2023-03-21T08:03:56.339Z,3.07
2023-03-21T08:06:39.714Z,3.60
2023-03-21T08:09:40.839Z,3.57
2023-03-21T08:12:49.609Z,4.00
2023-03-21T08:15:38.302Z,3.90
2023-03-21T08:18:25.590Z,3.57
2023-03-21T08:21:03.651Z,3.57
2023-03-21T08:23:45.950Z,3.93
2023-03-21T08:26:32.538Z,3.40
2023-03-21T08:29:29.459Z,3.93
2023-03-21T08:32:28.815Z,3.27
2023-03-21T08:35:04.535Z,3.63
2023-03-21T08:37:55.965Z,3.73
2023-03-21T08:40:44.324Z,2.90
2023-03-21T08:43:26.345Z,3.57
2023-03-21T08:46:07.027Z,3.17
2023-03-21T08:48:58.451Z,3.10
2023-03-21T08:51:48.325Z,2.63
2023-03-21T08:54:30.430Z,2.90
2023-03-21T08:57:16.394Z,2.87
2023-03-21T08:59:47.476Z,2.77
2023-03-21T09:02:27.614Z,2.47
2023-03-21T09:05:14.179Z,2.70
2023-03-21T09:08:00.615Z,2.80
2023-03-21T09:10:32.661Z,2.90
2023-03-21T09:13:13.459Z,2.53
2023-03-21T09:15:54.850Z,3.00
2023-03-21T09:18:50.897Z,3.50
2023-03-21T09:21:44.522Z,2.73
2023-03-21T09:24:53.953Z,2.80
2023-03-21T09:27:34.762Z,3.37
2023-03-21T09:30:20.674Z,3.30
2023-03-21T09:33:01.866Z,3.50
2023-03-21T09:35:33.536Z,3.50
2023-03-21T09:38:40.008Z,3.30
2023-03-21T09:42:15.562Z,3.07
2023-03-21T09:45:09.323Z,3.00
2023-03-21T09:47:54.694Z,3.10
2023-03-21T09:50:44.120Z,3.73
2023-03-21T09:53:26.234Z,3.83
2023-03-21T09:56:28.390Z,4.00
2023-03-21T09:59:11.141Z,3.47
2023-03-21T10:02:04.080Z,3.40
2023-03-21T10:04:38.614Z,3.60
2023-03-21T10:07:24.087Z,3.87
2023-03-21T10:10:28.417Z,4.03
2023-03-21T10:13:36.526Z,4.17
2023-03-21T10:16:20.124Z,4.20
2023-03-21T10:19:20.468Z,4.50
2023-03-21T10:22:14.487Z,4.10
2023-03-21T10:25:03.225Z,4.90
2023-03-21T10:27:56.562Z,4.60
2023-03-21T10:30:43.607Z,4.07
2023-03-21T10:33:35.716Z,4.40
2023-03-21T10:36:19.695Z,4.40
2023-03-21T10:39:13.757Z,4.20
2023-03-21T10:41:54.868Z,3.90
2023-03-21T10:44:38.227Z,4.10
2023-03-21T10:47:27.083Z,3.90
2023-03-21T10:50:09.238Z,4.47
2023-03-21T10:52:57.989Z,4.40
2023-03-21T10:55:58.169Z,4.30
2023-03-21T10:58:48.720Z,4.10
2023-03-21T11:01:34.316Z,4.00
2023-03-21T11:04:27.057Z,4.53
2023-03-21T11:07:09.710Z,4.40
2023-03-21T11:10:14.628Z,3.60
2023-03-21T11:13:06.767Z,3.23
2023-03-21T11:15:53.968Z,3.70
2023-03-21T11:18:45.314Z,3.33
2023-03-21T11:21:29.620Z,3.40
2023-03-21T11:24:24.351Z,3.37
2023-03-21T11:27:00.515Z,3.23
2023-03-21T11:29:49.099Z,3.53
2023-03-21T11:32:36.001Z,3.33
2023-03-21T11:35:21.680Z,3.47
2023-03-21T11:38:34.904Z,3.23
2023-03-21T11:41:22.426Z,3.37
2023-03-21T11:44:13.812Z,3.10
2023-03-21T11:46:54.313Z,2.93
2023-03-21T11:49:35.276Z,2.63
2023-03-21T11:52:33.442Z,2.63
2023-03-21T11:55:51.480Z,2.70
2023-03-21T11:58:46.236Z,2.77
2023-03-21T12:01:48.116Z,2.43
2023-03-21T12:04:42.107Z,2.73
2023-03-21T12:07:41.956Z,2.50
2023-03-21T12:10:43.915Z,2.50
2023-03-21T12:13:41.978Z,2.63
2023-03-21T12:16:40.390Z,2.30
2023-03-21T12:19:40.202Z,2.80
2023-03-21T12:22:26.493Z,2.80
2023-03-21T12:25:09.167Z,2.53
2023-03-21T12:27:53.500Z,2.50
2023-03-21T12:30:46.597Z,2.70
2023-03-21T12:33:56.210Z,2.50
2023-03-21T12:37:05.415Z,2.37
2023-03-21T12:39:44.339Z,2.57
2023-03-21T12:43:01.051Z,2.50
2023-03-21T12:45:58.421Z,2.53
2023-03-21T12:48:47.842Z,2.43
2023-03-21T12:51:30.477Z,2.70
2023-03-21T12:54:34.758Z,2.47
2023-03-21T12:57:15.165Z,2.50
2023-03-21T12:59:57.488Z,2.50
2023-03-21T13:02:59.364Z,2.00
2023-03-21T13:05:36.169Z,2.60
2023-03-21T13:08:32.030Z,2.70
2023-03-21T13:11:11.290Z,2.57
2023-03-21T13:14:05.587Z,2.50
2023-03-21T13:16:43.392Z,2.60
2023-03-21T13:19:31.288Z,2.80
2023-03-21T13:22:11.136Z,2.70
2023-03-21T13:24:55.333Z,2.27
2023-03-21T13:27:33.722Z,3.10
2023-03-21T13:30:08.183Z,2.57
2023-03-21T13:33:01.976Z,2.80
2023-03-21T13:36:02.665Z,2.60
2023-03-21T13:38:40.437Z,2.60
2023-03-21T13:41:31.742Z,2.30
2023-03-21T13:44:22.614Z,2.67
2023-03-21T13:47:08.006Z,2.50
2023-03-21T13:49:42.939Z,2.67
2023-03-21T13:53:20.460Z,2.27
2023-03-21T13:56:27.136Z,2.37
2023-03-21T13:59:17.985Z,2.47
2023-03-21T14:02:16.044Z,2.47
2023-03-21T14:05:06.423Z,2.80
2023-03-21T14:08:12.321Z,2.70
2023-03-21T14:10:54.362Z,2.80
2023-03-21T14:14:00.090Z,2.80
2023-03-21T14:16:47.322Z,2.47
2023-03-21T14:19:32.037Z,2.70
2023-03-21T14:22:20.086Z,2.70
2023-03-21T14:25:03.842Z,3.00
2023-03-21T14:27:49.174Z,2.90
2023-03-21T14:30:32.570Z,2.40
2023-03-21T14:33:16.373Z,2.73
2023-03-21T14:35:49.765Z,2.80
2023-03-21T14:38:30.113Z,2.30
2023-03-21T14:41:46.996Z,2.47
2023-03-21T14:44:30.248Z,2.50
2023-03-21T14:47:15.437Z,2.43
2023-03-21T14:50:05.014Z,2.70
2023-03-21T14:52:56.031Z,2.77
2023-03-21T14:56:07.462Z,2.73
2023-03-21T14:58:47.074Z,3.27
2023-03-21T15:01:36.560Z,3.20
2023-03-21T15:04:14.616Z,2.80
2023-03-21T15:07:02.493Z,3.60
2023-03-21T15:09:50.288Z,3.13
2023-03-21T15:12:21.713Z,3.23
2023-03-21T15:15:08.432Z,3.27
2023-03-21T15:17:55.130Z,3.37
2023-03-21T15:20:34.235Z,3.70
2023-03-21T15:23:33.183Z,4.37
2023-03-21T15:26:20.161Z,3.90
2023-03-21T15:29:02.808Z,4.00
2023-03-21T15:32:06.005Z,3.77
2023-03-21T15:34:56.763Z,3.63
2023-03-21T15:37:40.108Z,3.53
2023-03-21T15:40:25.552Z,3.80
2023-03-21T15:43:16.593Z,3.77
2023-03-21T15:45:57.000Z,3.93
2023-03-21T15:48:38.779Z,3.50
2023-03-21T15:51:27.848Z,3.67
2023-03-21T15:54:24.945Z,3.87
2023-03-21T15:57:31.490Z,3.87
2023-03-21T16:00:23.084Z,3.60
2023-03-21T16:03:11.054Z,3.53
2023-03-21T16:06:10.868Z,3.93
2023-03-21T16:08:55.704Z,3.67
2023-03-21T16:11:44.911Z,3.70
2023-03-21T16:14:42.434Z,3.63
2023-03-21T16:17:43.026Z,3.90
2023-03-21T16:20:25.459Z,4.30
2023-03-21T16:23:16.429Z,4.23
2023-03-21T16:26:05.933Z,3.50
2023-03-21T16:28:45.712Z,3.10
2023-03-21T16:31:43.499Z,3.30
2023-03-21T16:34:40.458Z,3.33
2023-03-21T16:37:19.211Z,3.53
2023-03-21T16:40:11.370Z,3.20
2023-03-21T16:42:47.431Z,3.50
2023-03-21T16:45:33.688Z,3.80
2023-03-21T16:48:16.838Z,4.47
2023-03-21T16:50:58.534Z,4.60
2023-03-21T16:53:58.384Z,4.40
2023-03-21T16:56:54.893Z,4.30
2023-03-21T16:59:44.197Z,4.63
2023-03-21T17:02:19.453Z,3.73
2023-03-21T17:05:05.004Z,3.90
2023-03-21T17:07:45.993Z,4.30
2023-03-21T17:10:34.188Z,4.33
2023-03-21T17:13:57.938Z,3.43
2023-03-21T17:16:43.344Z,3.40
2023-03-21T17:19:26.636Z,3.77
2023-03-21T17:22:01.100Z,4.00
2023-03-21T17:24:44.037Z,3.30
2023-03-21T17:27:29.566Z,3.10
2023-03-21T17:30:30.940Z,3.00
2023-03-21T17:33:17.590Z,3.30
2023-03-21T17:35:51.691Z,3.23
2023-03-21T17:38:30.421Z,3.13
2023-03-21T17:41:27.816Z,3.37
2023-03-21T17:44:10.980Z,3.20
2023-03-21T17:47:07.867Z,3.20
2023-03-21T17:50:01.815Z,3.50
2023-03-21T17:52:50.939Z,3.20
2023-03-21T17:55:41.683Z,3.10
2023-03-21T17:58:39.483Z,3.00
2023-03-21T18:01:31.215Z,3.20
2023-03-21T18:04:11.311Z,3.30
2023-03-21T18:07:13.954Z,2.90
2023-03-21T18:10:15.218Z,3.43
2023-03-21T18:13:06.317Z,3.17
2023-03-21T18:15:48.331Z,3.20
2023-03-21T18:18:19.540Z,3.30
2023-03-21T18:21:01.760Z,3.80
2023-03-21T18:23:48.692Z,4.57
2023-03-21T18:26:33.599Z,3.83
2023-03-21T18:30:50.441Z,4.13
2023-03-21T18:32:19.760Z,3.90
2023-03-21T18:34:57.942Z,4.63
2023-03-21T18:37:43.510Z,4.13
2023-03-21T18:40:44.547Z,5.57
2023-03-21T18:44:00.739Z,4.40
2023-03-21T18:46:17.981Z,5.10
2023-03-21T18:48:51.590Z,5.67
2023-03-21T18:51:32.001Z,5.63
2023-03-21T18:54:34.968Z,5.10
2023-03-21T18:57:38.836Z,4.83
2023-03-21T19:00:23.728Z,4.90
2023-03-21T19:03:30.120Z,4.73
2023-03-21T19:06:17.911Z,4.63
2023-03-21T19:09:00.313Z,4.10
2023-03-21T19:11:44.024Z,4.60
2023-03-21T19:14:32.337Z,4.70
2023-03-21T19:20:26.526Z,4.27
2023-03-21T19:23:04.268Z,4.73
2023-03-21T19:26:04.373Z,4.33
2023-03-21T19:28:45.296Z,3.87
2023-03-21T19:31:25.905Z,3.90
2023-03-21T19:34:06.797Z,4.33
2023-03-21T19:36:55.428Z,4.70
2023-03-21T19:39:36.897Z,6.47
2023-03-21T19:42:37.055Z,6.30
2023-03-21T19:45:30.601Z,5.23
2023-03-21T19:48:07.388Z,7.37
2023-03-21T19:51:26.902Z,5.73
2023-03-21T19:54:05.607Z,6.40
2023-03-21T19:56:47.122Z,6.00
2023-03-21T19:59:20.212Z,5.37
2023-03-21T20:02:33.207Z,5.60
2023-03-21T20:05:06.010Z,5.13
2023-03-21T20:08:06.100Z,5.40
2023-03-21T20:10:48.659Z,7.70
2023-03-21T20:13:34.338Z,7.40
2023-03-21T20:16:14.615Z,7.60
2023-03-21T20:18:52.841Z,5.80
2023-03-21T20:21:34.905Z,5.47
2023-03-21T20:24:44.613Z,5.23
2023-03-21T20:27:43.930Z,5.37
2023-03-21T20:30:34.923Z,5.40
2023-03-21T20:33:30.846Z,5.70
2023-03-21T20:36:38.752Z,4.80
2023-03-21T20:39:05.868Z,5.73
2023-03-21T20:41:44.693Z,5.67
2023-03-21T20:44:56.325Z,5.10
2023-03-21T20:47:37.836Z,5.20
2023-03-21T20:50:38.986Z,5.47
2023-03-21T20:53:39.566Z,5.00
2023-03-21T20:56:13.730Z,5.20
2023-03-21T20:59:02.076Z,5.33
2023-03-21T21:01:39.968Z,5.17
2023-03-21T21:04:20.397Z,4.80
2023-03-21T21:07:17.637Z,4.77
2023-03-21T21:10:52.418Z,5.07
2023-03-21T21:13:31.647Z,5.47
2023-03-21T21:16:14.144Z,5.50
2023-03-21T21:18:50.220Z,5.73
2023-03-21T21:21:21.522Z,5.77
2023-03-21T21:23:53.583Z,6.00
2023-03-21T21:26:34.033Z,5.60
2023-03-21T21:29:11.386Z,5.50
2023-03-21T21:31:44.751Z,5.90
2023-03-21T21:34:22.026Z,6.03
2023-03-21T21:37:20.402Z,6.80
2023-03-21T21:40:13.970Z,5.83
2023-03-21T21:43:20.905Z,5.23
2023-03-21T21:46:21.995Z,5.50
2023-03-21T21:49:01.894Z,5.40
2023-03-21T21:51:42.209Z,5.70
2023-03-21T21:54:18.741Z,5.50
2023-03-21T21:56:58.349Z,5.93
2023-03-21T21:59:54.434Z,5.10
2023-03-21T22:02:28.636Z,5.63
2023-03-21T22:05:17.105Z,5.70
2023-03-21T22:07:52.265Z,5.40
2023-03-21T22:10:46.674Z,5.20
2023-03-21T22:13:30.881Z,5.03
2023-03-21T22:16:03.452Z,5.50
2023-03-21T22:18:36.262Z,5.20
2023-03-21T22:21:09.241Z,4.87
2023-03-21T22:24:00.690Z,4.90
2023-03-21T22:26:44.961Z,5.17
2023-03-21T22:29:20.772Z,4.50
2023-03-21T22:31:58.319Z,4.43
2023-03-21T22:34:34.926Z,4.70
2023-03-21T22:37:30.669Z,4.73
2023-03-21T22:40:15.119Z,4.63
2023-03-21T22:42:54.187Z,4.33
2023-03-21T22:45:39.260Z,5.10
2023-03-21T22:48:21.335Z,4.43
2023-03-21T22:51:08.531Z,5.30
2023-03-21T22:53:39.628Z,4.67
2023-03-21T22:56:13.172Z,4.87
2023-03-21T22:59:00.921Z,4.83
2023-03-21T23:01:43.748Z,4.53
2023-03-21T23:04:46.225Z,4.60
2023-03-21T23:07:17.060Z,4.50
2023-03-21T23:10:06.976Z,4.03
2023-03-21T23:12:37.912Z,4.50
2023-03-21T23:15:15.438Z,4.50
2023-03-21T23:17:58.980Z,5.10
2023-03-21T23:20:53.943Z,4.53
2023-03-21T23:23:25.204Z,4.17
2023-03-21T23:26:12.463Z,4.93
2023-03-21T23:28:46.726Z,5.33
2023-03-21T23:31:26.463Z,5.10
2023-03-21T23:34:08.299Z,5.60
2023-03-21T23:37:10.988Z,6.00
2023-03-21T23:39:45.560Z,5.47
2023-03-21T23:42:19.186Z,5.47
2023-03-21T23:45:09.554Z,5.50
2023-03-21T23:47:54.670Z,5.77
2023-03-21T23:50:24.953Z,5.37
2023-03-21T23:53:15.396Z,4.63
2023-03-21T23:55:59.508Z,5.07
2023-03-21T23:59:05.781Z,4.20
